createdAt,value
2023-08-27T00:00:28.793Z,13.47
2023-08-27T00:01:00.277Z,13.46
2023-08-27T00:01:31.825Z,13.47
2023-08-27T00:02:04.898Z,13.48
2023-08-27T00:02:36.736Z,13.49
2023-08-27T00:03:08.205Z,13.50
2023-08-27T00:03:39.761Z,13.51
2023-08-27T00:04:11.256Z,13.52
2023-08-27T00:04:44.097Z,13.52
2023-08-27T00:06:04.860Z,13.53
2023-08-27T00:06:36.562Z,13.53
2023-08-27T00:07:08.576Z,13.53
2023-08-27T00:07:40.350Z,13.53
2023-08-27T00:08:12.378Z,13.55
2023-08-27T00:08:44.918Z,13.53
2023-08-27T00:09:16.321Z,13.55
2023-08-27T00:09:48.021Z,13.54
2023-08-27T00:10:19.463Z,13.55
2023-08-27T00:10:50.879Z,13.57
2023-08-27T00:11:22.321Z,13.57
2023-08-27T00:11:53.823Z,13.57
2023-08-27T00:12:25.506Z,13.58
2023-08-27T00:12:57.336Z,13.59
2023-08-27T00:13:29.047Z,13.60
2023-08-27T00:14:00.511Z,13.59
2023-08-27T00:14:32.069Z,13.59
2023-08-27T00:15:04.869Z,13.60
2023-08-27T00:15:36.384Z,13.61
2023-08-27T00:16:07.886Z,13.60
2023-08-27T00:16:39.420Z,13.59
2023-08-27T00:17:10.980Z,13.58
2023-08-27T00:17:43.088Z,13.61
2023-08-27T00:18:14.668Z,13.60
2023-08-27T00:18:46.200Z,13.61
2023-08-27T00:19:17.698Z,13.62
2023-08-27T00:19:49.487Z,13.63
2023-08-27T00:20:21.005Z,13.63
2023-08-27T00:20:52.466Z,13.64
2023-08-27T00:21:23.995Z,13.66
2023-08-27T00:21:55.449Z,13.67
2023-08-27T00:22:27.139Z,13.68
2023-08-27T00:22:59.028Z,13.69
2023-08-27T00:23:30.638Z,13.70
2023-08-27T00:24:02.152Z,13.69
2023-08-27T00:24:33.663Z,13.70
2023-08-27T00:25:05.945Z,13.70
2023-08-27T00:25:37.726Z,13.71
2023-08-27T00:26:09.421Z,13.72
2023-08-27T00:26:40.924Z,13.73
2023-08-27T00:27:12.360Z,13.74
2023-08-27T00:28:03.342Z,13.73
2023-08-27T00:28:34.865Z,13.76
2023-08-27T00:29:06.386Z,13.74
2023-08-27T00:29:37.891Z,13.75
2023-08-27T00:30:10.373Z,13.75
2023-08-27T00:30:42.608Z,13.74
2023-08-27T00:31:14.093Z,13.74
2023-08-27T00:31:45.907Z,13.74
2023-08-27T00:32:25.170Z,13.73
2023-08-27T00:32:58.242Z,13.74
2023-08-27T00:33:31.334Z,13.73
2023-08-27T00:34:03.013Z,13.74
2023-08-27T00:34:35.664Z,13.75
2023-08-27T00:35:07.457Z,13.74
2023-08-27T00:35:38.981Z,13.75
2023-08-27T00:36:10.510Z,13.74
2023-08-27T00:36:42.112Z,13.74
2023-08-27T00:37:13.682Z,13.74
2023-08-27T00:37:45.312Z,13.74
2023-08-27T00:38:16.959Z,13.73
2023-08-27T00:38:48.645Z,13.74
2023-08-27T00:39:20.087Z,13.74
2023-08-27T00:39:51.644Z,13.74
2023-08-27T00:40:23.059Z,13.75
2023-08-27T00:40:54.470Z,13.75
2023-08-27T00:41:25.969Z,13.77
2023-08-27T00:41:57.888Z,13.76
2023-08-27T00:42:29.349Z,13.75
2023-08-27T00:43:01.017Z,13.76
2023-08-27T00:43:32.610Z,13.78
2023-08-27T00:44:04.351Z,13.78
2023-08-27T00:44:35.891Z,13.78
2023-08-27T00:45:07.759Z,13.78
2023-08-27T00:45:40.053Z,13.78
2023-08-27T00:46:11.907Z,13.77
2023-08-27T00:46:44.085Z,13.78
2023-08-27T00:47:16.662Z,13.77
2023-08-27T00:47:48.354Z,13.77
2023-08-27T00:48:20.713Z,13.78
2023-08-27T00:48:52.269Z,13.77
2023-08-27T00:49:24.190Z,13.76
2023-08-27T00:49:55.801Z,13.75
2023-08-27T00:50:27.724Z,13.76
2023-08-27T00:50:59.266Z,13.76
2023-08-27T00:51:33.608Z,13.76
2023-08-27T00:52:06.391Z,13.75
2023-08-27T00:52:38.303Z,13.75
2023-08-27T00:53:10.644Z,13.75
2023-08-27T00:53:42.378Z,13.75
2023-08-27T00:54:14.002Z,13.74
2023-08-27T00:54:45.899Z,13.75
2023-08-27T00:55:17.665Z,13.74
2023-08-27T00:55:49.342Z,13.75
2023-08-27T00:56:21.046Z,13.73
2023-08-27T00:56:52.766Z,13.74
2023-08-27T00:57:25.959Z,13.74
2023-08-27T00:57:57.996Z,13.73
2023-08-27T00:58:29.434Z,13.72
2023-08-27T00:59:02.279Z,13.72
2023-08-27T00:59:34.686Z,13.72
2023-08-27T01:00:10.654Z,13.72
2023-08-27T01:00:42.850Z,13.71
2023-08-27T01:01:16.654Z,13.70
2023-08-27T01:01:48.264Z,13.71
2023-08-27T01:02:19.680Z,13.71
2023-08-27T01:02:51.374Z,13.70
2023-08-27T01:03:23.078Z,13.70
2023-08-27T01:03:54.815Z,13.69
2023-08-27T01:04:26.409Z,13.69
2023-08-27T01:04:57.964Z,13.70
2023-08-27T01:05:30.050Z,13.68
2023-08-27T01:06:01.571Z,13.70
2023-08-27T01:06:34.135Z,13.69
2023-08-27T01:07:15.438Z,13.68
2023-08-27T01:07:54.758Z,13.69
2023-08-27T01:08:46.501Z,13.68
2023-08-27T01:09:28.756Z,13.67
2023-08-27T01:10:12.109Z,13.66
2023-08-27T01:11:16.602Z,13.67
2023-08-27T01:12:10.332Z,13.68
2023-08-27T01:13:12.135Z,13.66
2023-08-27T01:13:57.785Z,13.65
2023-08-27T01:14:33.866Z,13.64
2023-08-27T01:15:08.286Z,13.64
2023-08-27T01:15:41.019Z,13.62
2023-08-27T01:16:13.498Z,13.62
2023-08-27T01:16:46.169Z,13.63
2023-08-27T01:17:21.451Z,13.62
2023-08-27T01:17:56.469Z,13.62
2023-08-27T01:18:29.610Z,13.63
2023-08-27T01:19:04.857Z,13.62
2023-08-27T01:19:37.691Z,13.62
2023-08-27T01:20:10.959Z,13.62
2023-08-27T01:20:42.658Z,13.61
2023-08-27T01:21:24.550Z,13.62
2023-08-27T01:21:55.983Z,13.60
2023-08-27T01:22:29.203Z,13.60
2023-08-27T01:23:00.843Z,13.61
2023-08-27T01:23:32.480Z,13.61
2023-08-27T01:24:04.277Z,13.60
2023-08-27T01:24:35.776Z,13.62
2023-08-27T01:25:09.364Z,13.62
2023-08-27T01:25:50.656Z,13.64
2023-08-27T01:26:29.047Z,13.63
2023-08-27T01:27:10.370Z,13.64
2023-08-27T01:27:51.902Z,13.64
2023-08-27T01:28:38.780Z,13.63
2023-08-27T01:29:16.771Z,13.64
2023-08-27T01:30:18.002Z,13.64
2023-08-27T01:31:09.599Z,13.65
2023-08-27T01:31:48.468Z,13.64
2023-08-27T01:32:34.342Z,13.64
2023-08-27T01:33:14.224Z,13.64
2023-08-27T01:33:46.537Z,13.63
2023-08-27T01:34:21.246Z,13.63
2023-08-27T01:34:55.006Z,13.62
2023-08-27T01:35:26.925Z,13.63
2023-08-27T01:35:59.838Z,13.63
2023-08-27T01:36:35.655Z,13.64
2023-08-27T01:37:07.894Z,13.65
2023-08-27T01:37:39.653Z,13.64
2023-08-27T01:38:12.270Z,13.64
2023-08-27T01:38:43.921Z,13.64
2023-08-27T01:39:16.294Z,13.65
2023-08-27T01:39:47.830Z,13.65
2023-08-27T01:40:19.486Z,13.64
2023-08-27T01:40:51.018Z,13.65
2023-08-27T01:41:22.505Z,13.65
2023-08-27T01:41:54.303Z,13.64
2023-08-27T01:42:25.970Z,13.64
2023-08-27T01:42:57.866Z,13.63
2023-08-27T01:43:32.910Z,13.63
2023-08-27T01:44:04.506Z,13.63
2023-08-27T01:44:36.815Z,13.62
2023-08-27T01:45:11.315Z,13.62
2023-08-27T01:45:42.746Z,13.61
2023-08-27T01:46:14.396Z,13.61
2023-08-27T01:46:45.910Z,13.60
2023-08-27T01:47:17.397Z,13.59
2023-08-27T01:47:48.985Z,13.60
2023-08-27T01:48:20.509Z,13.59
2023-08-27T01:48:52.018Z,13.60
2023-08-27T01:49:23.494Z,13.60
2023-08-27T01:49:54.984Z,13.61
2023-08-27T01:50:26.413Z,13.60
2023-08-27T01:50:57.936Z,13.60
2023-08-27T01:51:29.693Z,13.60
2023-08-27T01:52:01.245Z,13.59
2023-08-27T01:52:35.092Z,13.59
2023-08-27T01:53:06.655Z,13.58
2023-08-27T01:53:38.082Z,13.58
2023-08-27T01:54:09.591Z,13.56
2023-08-27T01:54:41.260Z,13.57
2023-08-27T01:55:12.874Z,13.56
2023-08-27T01:55:44.824Z,13.56
2023-08-27T01:56:16.359Z,13.55
2023-08-27T01:56:47.747Z,13.54
2023-08-27T01:57:19.187Z,13.55
2023-08-27T01:57:50.659Z,13.54
2023-08-27T01:58:22.356Z,13.55
2023-08-27T01:58:53.893Z,13.54
2023-08-27T01:59:25.533Z,13.54
2023-08-27T01:59:57.032Z,13.53
2023-08-27T02:00:28.564Z,13.53
2023-08-27T02:01:00.539Z,13.53
2023-08-27T02:01:32.111Z,13.53
2023-08-27T02:02:04.181Z,13.51
2023-08-27T02:02:37.816Z,13.49
2023-08-27T02:03:09.446Z,13.49
2023-08-27T02:03:40.991Z,13.48
2023-08-27T02:04:12.487Z,13.48
2023-08-27T02:04:44.161Z,13.47
2023-08-27T02:05:15.679Z,13.47
2023-08-27T02:05:48.950Z,13.46
2023-08-27T02:06:20.675Z,13.47
2023-08-27T02:06:52.135Z,13.45
2023-08-27T02:07:42.407Z,13.47
2023-08-27T02:08:13.867Z,13.44
2023-08-27T02:08:45.346Z,13.44
2023-08-27T02:09:16.917Z,13.44
2023-08-27T02:09:48.552Z,13.43
2023-08-27T02:10:20.141Z,13.42
2023-08-27T02:10:51.730Z,13.43
2023-08-27T02:11:23.238Z,13.42
2023-08-27T02:11:54.630Z,13.41
2023-08-27T02:12:26.447Z,13.41
2023-08-27T02:12:58.313Z,13.40
2023-08-27T02:13:30.178Z,13.41
2023-08-27T02:14:01.712Z,13.41
2023-08-27T02:14:33.145Z,13.40
2023-08-27T02:15:07.927Z,13.41
2023-08-27T02:15:39.509Z,13.40
2023-08-27T02:16:11.008Z,13.39
2023-08-27T02:16:42.616Z,13.39
2023-08-27T02:17:14.279Z,13.38
2023-08-27T02:17:45.751Z,13.38
2023-08-27T02:18:17.287Z,13.38
2023-08-27T02:18:48.724Z,13.37
2023-08-27T02:19:20.470Z,13.37
2023-08-27T02:19:52.187Z,13.35
2023-08-27T02:20:23.774Z,13.36
2023-08-27T02:20:57.624Z,13.35
2023-08-27T02:21:29.308Z,13.33
2023-08-27T02:22:02.402Z,13.33
2023-08-27T02:22:34.869Z,13.34
2023-08-27T02:23:06.340Z,13.34
2023-08-27T02:23:37.858Z,13.34
2023-08-27T02:24:09.373Z,13.33
2023-08-27T02:24:41.048Z,13.33
2023-08-27T02:25:12.798Z,13.33
2023-08-27T02:25:44.244Z,13.32
2023-08-27T02:26:15.718Z,13.32
2023-08-27T02:26:47.147Z,13.31
2023-08-27T02:27:18.619Z,13.31
2023-08-27T02:27:50.489Z,13.31
2023-08-27T02:28:21.967Z,13.30
2023-08-27T02:28:53.616Z,13.31
2023-08-27T02:29:25.030Z,13.32
2023-08-27T02:29:56.561Z,13.33
2023-08-27T02:30:28.073Z,13.34
2023-08-27T02:30:59.907Z,13.33
2023-08-27T02:31:31.513Z,13.34
2023-08-27T02:32:03.765Z,13.35
2023-08-27T02:32:35.261Z,13.36
2023-08-27T02:33:06.776Z,13.37
2023-08-27T02:33:38.434Z,13.37
2023-08-27T02:34:10.022Z,13.37
2023-08-27T02:34:41.537Z,13.38
2023-08-27T02:35:13.067Z,13.40
2023-08-27T02:35:44.496Z,13.39
2023-08-27T02:36:15.877Z,13.39
2023-08-27T02:36:47.340Z,13.40
2023-08-27T02:37:19.406Z,13.40
2023-08-27T02:37:50.889Z,13.41
2023-08-27T02:38:22.380Z,13.41
2023-08-27T02:38:55.397Z,13.42
2023-08-27T02:39:26.939Z,13.42
2023-08-27T02:39:58.386Z,13.44
2023-08-27T02:40:29.839Z,13.44
2023-08-27T02:41:01.329Z,13.43
2023-08-27T02:41:32.827Z,13.44
2023-08-27T02:42:04.405Z,13.43
2023-08-27T02:42:37.935Z,13.44
2023-08-27T02:43:09.548Z,13.44
2023-08-27T02:43:41.053Z,13.44
2023-08-27T02:44:12.545Z,13.45
2023-08-27T02:44:43.965Z,13.44
2023-08-27T02:45:34.171Z,13.45
2023-08-27T02:46:06.027Z,13.47
2023-08-27T02:46:37.713Z,13.46
2023-08-27T02:47:09.537Z,13.48
2023-08-27T02:47:41.006Z,13.48
2023-08-27T02:48:13.640Z,13.49
2023-08-27T02:48:45.093Z,13.48
2023-08-27T02:49:16.565Z,13.49
2023-08-27T02:49:48.033Z,13.48
2023-08-27T02:50:19.440Z,13.50
2023-08-27T02:50:50.867Z,13.51
2023-08-27T02:51:22.441Z,13.50
2023-08-27T02:51:55.179Z,13.51
2023-08-27T02:52:26.662Z,13.52
2023-08-27T02:52:58.432Z,13.52
2023-08-27T02:53:30.171Z,13.52
2023-08-27T02:54:01.685Z,13.52
2023-08-27T02:54:33.162Z,13.53
2023-08-27T02:55:05.052Z,13.53
2023-08-27T02:55:36.474Z,13.54
2023-08-27T02:56:09.248Z,13.54
2023-08-27T02:56:40.784Z,13.56
2023-08-27T02:57:12.317Z,13.56
2023-08-27T02:57:43.780Z,13.56
2023-08-27T02:58:15.290Z,13.56
2023-08-27T02:58:50.383Z,13.57
2023-08-27T02:59:21.876Z,13.57
2023-08-27T02:59:53.481Z,13.57
2023-08-27T03:00:26.365Z,13.57
2023-08-27T03:00:57.858Z,13.56
2023-08-27T03:01:29.344Z,13.58
2023-08-27T03:02:01.000Z,13.58
2023-08-27T03:02:32.627Z,13.58
2023-08-27T03:03:04.447Z,13.57
2023-08-27T03:03:36.010Z,13.56
2023-08-27T03:04:07.543Z,13.58
2023-08-27T03:04:39.269Z,13.58
2023-08-27T03:05:10.821Z,13.57
2023-08-27T03:05:42.411Z,13.57
2023-08-27T03:06:14.536Z,13.57
2023-08-27T03:06:46.028Z,13.58
2023-08-27T03:07:17.549Z,13.58
2023-08-27T03:07:49.232Z,13.60
2023-08-27T03:08:20.658Z,13.60
2023-08-27T03:08:52.454Z,13.59
2023-08-27T03:09:24.024Z,13.60
2023-08-27T03:09:55.549Z,13.60
2023-08-27T03:10:27.009Z,13.60
2023-08-27T03:10:58.467Z,13.60
2023-08-27T03:11:29.905Z,13.61
2023-08-27T03:12:01.337Z,13.60
2023-08-27T03:12:32.861Z,13.60
2023-08-27T03:13:04.368Z,13.61
2023-08-27T03:13:36.515Z,13.60
2023-08-27T03:14:08.489Z,13.60
2023-08-27T03:14:40.014Z,13.60
2023-08-27T03:15:11.512Z,13.59
2023-08-27T03:15:42.911Z,13.58
2023-08-27T03:16:14.340Z,13.58
2023-08-27T03:16:45.867Z,13.57
2023-08-27T03:17:17.291Z,13.59
2023-08-27T03:17:49.165Z,13.59
2023-08-27T03:18:20.653Z,13.60
2023-08-27T03:18:52.119Z,13.59
2023-08-27T03:19:23.589Z,13.59
2023-08-27T03:19:55.213Z,13.60
2023-08-27T03:20:26.676Z,13.59
2023-08-27T03:20:58.148Z,13.59
2023-08-27T03:21:29.616Z,13.58
2023-08-27T03:22:01.356Z,13.57
2023-08-27T03:22:32.759Z,13.59
2023-08-27T03:23:04.254Z,13.59
2023-08-27T03:23:36.961Z,13.59
2023-08-27T03:24:08.497Z,13.59
2023-08-27T03:24:39.916Z,13.59
2023-08-27T03:25:11.473Z,13.58
2023-08-27T03:25:43.021Z,13.58
2023-08-27T03:26:14.490Z,13.57
2023-08-27T03:26:45.912Z,13.58
2023-08-27T03:27:17.317Z,13.59
2023-08-27T03:27:48.863Z,13.58
2023-08-27T03:28:20.320Z,13.57
2023-08-27T03:28:51.810Z,13.57
2023-08-27T03:29:23.238Z,13.57
2023-08-27T03:29:54.765Z,13.58
2023-08-27T03:30:26.233Z,13.57
2023-08-27T03:30:57.721Z,13.57
2023-08-27T03:31:29.241Z,13.58
2023-08-27T03:32:01.036Z,13.56
2023-08-27T03:32:32.690Z,13.57
2023-08-27T03:33:04.490Z,13.58
2023-08-27T03:33:36.310Z,13.57
2023-08-27T03:34:07.961Z,13.57
2023-08-27T03:34:39.372Z,13.57
2023-08-27T03:35:12.424Z,13.55
2023-08-27T03:35:52.906Z,13.56
2023-08-27T03:36:24.375Z,13.56
2023-08-27T03:36:55.847Z,13.57
2023-08-27T03:37:27.316Z,13.57
2023-08-27T03:37:58.945Z,13.58
2023-08-27T03:38:30.625Z,13.58
2023-08-27T03:39:02.374Z,13.59
2023-08-27T03:39:34.255Z,13.57
2023-08-27T03:40:06.349Z,13.58
2023-08-27T03:40:37.725Z,13.56
2023-08-27T03:41:09.117Z,13.56
2023-08-27T03:41:40.681Z,13.56
2023-08-27T03:42:12.150Z,13.56
2023-08-27T03:42:43.673Z,13.55
2023-08-27T03:43:15.160Z,13.56
2023-08-27T03:43:46.561Z,13.56
2023-08-27T03:44:18.054Z,13.56
2023-08-27T03:44:49.634Z,13.56
2023-08-27T03:45:21.342Z,13.57
2023-08-27T03:45:52.914Z,13.58
2023-08-27T03:46:24.505Z,13.59
2023-08-27T03:46:55.985Z,13.59
2023-08-27T03:47:28.140Z,13.59
2023-08-27T03:47:59.659Z,13.59
2023-08-27T03:48:31.116Z,13.60
2023-08-27T03:49:03.196Z,13.60
2023-08-27T03:49:34.693Z,13.61
2023-08-27T03:50:06.862Z,13.60
2023-08-27T03:50:38.842Z,13.61
2023-08-27T03:51:10.480Z,13.60
2023-08-27T03:51:42.128Z,13.59
2023-08-27T03:52:13.545Z,13.59
2023-08-27T03:52:44.960Z,13.59
2023-08-27T03:53:16.414Z,13.59
2023-08-27T03:53:48.201Z,13.60
2023-08-27T03:54:19.675Z,13.60
2023-08-27T03:54:51.360Z,13.58
2023-08-27T03:55:22.955Z,13.59
2023-08-27T03:55:54.555Z,13.60
2023-08-27T03:56:26.022Z,13.60
2023-08-27T03:56:59.875Z,13.61
2023-08-27T03:57:31.351Z,13.60
2023-08-27T03:58:03.350Z,13.61
2023-08-27T03:58:35.128Z,13.61
2023-08-27T03:59:06.621Z,13.62
2023-08-27T03:59:38.056Z,13.63
2023-08-27T04:00:10.211Z,13.63
2023-08-27T04:00:41.728Z,13.63
2023-08-27T04:01:13.217Z,13.64
2023-08-27T04:01:44.728Z,13.65
2023-08-27T04:03:06.265Z,13.67
2023-08-27T04:03:37.877Z,13.67
2023-08-27T04:04:09.522Z,13.67
2023-08-27T04:04:40.992Z,13.67
2023-08-27T04:05:12.869Z,13.69
2023-08-27T04:05:44.310Z,13.68
2023-08-27T04:06:16.057Z,13.69
2023-08-27T04:06:47.831Z,13.68
2023-08-27T04:07:19.517Z,13.67
2023-08-27T04:07:50.925Z,13.68
2023-08-27T04:08:22.375Z,13.68
2023-08-27T04:08:53.866Z,13.68
2023-08-27T04:09:26.867Z,13.69
2023-08-27T04:09:58.480Z,13.69
2023-08-27T04:10:30.842Z,13.69
2023-08-27T04:11:02.781Z,13.70
2023-08-27T04:11:34.320Z,13.72
2023-08-27T04:12:06.250Z,13.72
2023-08-27T04:12:37.922Z,13.71
2023-08-27T04:13:09.414Z,13.71
2023-08-27T04:13:40.882Z,13.72
2023-08-27T04:14:12.414Z,13.73
2023-08-27T04:14:44.471Z,13.73
2023-08-27T04:15:16.352Z,13.71
2023-08-27T04:15:58.745Z,13.73
2023-08-27T04:16:31.136Z,13.73
2023-08-27T04:17:03.390Z,13.73
2023-08-27T04:17:34.948Z,13.75
2023-08-27T04:18:06.453Z,13.73
2023-08-27T04:18:38.227Z,13.74
2023-08-27T04:19:09.931Z,13.74
2023-08-27T04:19:41.418Z,13.73
2023-08-27T04:20:12.930Z,13.74
2023-08-27T04:20:44.405Z,13.75
2023-08-27T04:21:15.960Z,13.76
2023-08-27T04:21:47.472Z,13.76
2023-08-27T04:22:19.143Z,13.76
2023-08-27T04:22:50.741Z,13.77
2023-08-27T04:23:22.218Z,13.78
2023-08-27T04:23:53.686Z,13.80
2023-08-27T04:24:25.169Z,13.80
2023-08-27T04:24:56.621Z,13.81
2023-08-27T04:25:28.370Z,13.80
2023-08-27T04:25:59.819Z,13.80
2023-08-27T04:26:31.358Z,13.78
2023-08-27T04:27:02.899Z,13.78
2023-08-27T04:27:35.076Z,13.77
2023-08-27T04:28:06.594Z,13.78
2023-08-27T04:28:38.307Z,13.78
2023-08-27T04:29:09.987Z,13.78
2023-08-27T04:29:41.445Z,13.80
2023-08-27T04:30:13.788Z,13.80
2023-08-27T04:30:49.436Z,13.80
2023-08-27T04:31:20.938Z,13.79
2023-08-27T04:31:52.479Z,13.81
2023-08-27T04:32:24.041Z,13.80
2023-08-27T04:32:55.829Z,13.79
2023-08-27T04:33:29.572Z,13.81
2023-08-27T04:34:01.058Z,13.81
2023-08-27T04:34:32.502Z,13.82
2023-08-27T04:35:05.546Z,13.82
2023-08-27T04:35:37.301Z,13.83
2023-08-27T04:36:09.135Z,13.82
2023-08-27T04:36:40.669Z,13.81
2023-08-27T04:37:12.312Z,13.82
2023-08-27T04:37:44.404Z,13.82
2023-08-27T04:38:15.819Z,13.81
2023-08-27T04:38:47.286Z,13.80
2023-08-27T04:39:18.746Z,13.80
2023-08-27T04:39:50.193Z,13.79
2023-08-27T04:40:21.675Z,13.80
2023-08-27T04:40:53.905Z,13.81
2023-08-27T04:41:25.464Z,13.81
2023-08-27T04:41:57.884Z,13.82
2023-08-27T04:42:29.382Z,13.83
2023-08-27T04:43:01.518Z,13.84
2023-08-27T04:43:33.804Z,13.83
2023-08-27T04:44:05.603Z,13.85
2023-08-27T04:44:37.052Z,13.83
2023-08-27T04:45:10.324Z,13.84
2023-08-27T04:45:41.754Z,13.83
2023-08-27T04:46:13.268Z,13.81
2023-08-27T04:46:44.771Z,13.82
2023-08-27T04:47:17.364Z,13.82
2023-08-27T04:47:48.899Z,13.82
2023-08-27T04:48:20.838Z,13.82
2023-08-27T04:48:52.330Z,13.81
2023-08-27T04:49:23.741Z,13.81
2023-08-27T04:49:55.212Z,13.81
2023-08-27T04:50:26.744Z,13.83
2023-08-27T04:50:59.202Z,13.82
2023-08-27T04:51:30.598Z,13.83
2023-08-27T04:52:02.063Z,13.83
2023-08-27T04:52:33.699Z,13.84
2023-08-27T04:53:05.176Z,13.84
2023-08-27T04:53:36.596Z,13.85
2023-08-27T04:54:08.213Z,13.86
2023-08-27T04:54:39.648Z,13.86
2023-08-27T04:55:12.522Z,13.86
2023-08-27T04:55:44.947Z,13.85
2023-08-27T04:56:16.609Z,13.87
2023-08-27T04:56:48.026Z,13.87
2023-08-27T04:57:19.504Z,13.86
2023-08-27T04:57:51.268Z,13.86
2023-08-27T04:58:22.761Z,13.87
2023-08-27T04:58:54.442Z,13.87
2023-08-27T04:59:25.905Z,13.85
2023-08-27T04:59:57.486Z,13.86
2023-08-27T05:00:28.930Z,13.85
2023-08-27T05:01:00.587Z,13.86
2023-08-27T05:01:32.103Z,13.85
2023-08-27T05:02:03.964Z,13.85
2023-08-27T05:02:38.524Z,13.86
2023-08-27T05:03:10.000Z,13.86
2023-08-27T05:03:41.943Z,13.86
2023-08-27T05:04:13.435Z,13.85
2023-08-27T05:04:45.268Z,13.86
2023-08-27T05:05:17.295Z,13.86
2023-08-27T05:05:52.603Z,13.87
2023-08-27T05:06:24.037Z,13.87
2023-08-27T05:06:55.776Z,13.87
2023-08-27T05:07:27.310Z,13.88
2023-08-27T05:07:58.983Z,13.87
2023-08-27T05:08:30.818Z,13.88
2023-08-27T05:09:21.003Z,13.87
2023-08-27T05:09:52.869Z,13.88
2023-08-27T05:10:24.446Z,13.88
2023-08-27T05:10:55.968Z,13.88
2023-08-27T05:11:27.530Z,13.88
2023-08-27T05:11:59.052Z,13.89
2023-08-27T05:12:30.520Z,13.88
2023-08-27T05:13:02.011Z,13.88
2023-08-27T05:13:33.683Z,13.88
2023-08-27T05:14:05.188Z,13.88
2023-08-27T05:14:36.647Z,13.87
2023-08-27T05:15:08.491Z,13.88
2023-08-27T05:15:40.620Z,13.88
2023-08-27T05:16:12.241Z,13.88
2023-08-27T05:16:43.877Z,13.87
2023-08-27T05:17:15.363Z,13.86
2023-08-27T05:17:47.650Z,13.85
2023-08-27T05:18:19.195Z,13.85
2023-08-27T05:18:50.696Z,13.85
2023-08-27T05:19:22.310Z,13.85
2023-08-27T05:19:53.736Z,13.85
2023-08-27T05:20:25.207Z,13.84
2023-08-27T05:20:56.865Z,13.83
2023-08-27T05:21:28.284Z,13.83
2023-08-27T05:22:01.423Z,13.82
2023-08-27T05:22:32.878Z,13.82
2023-08-27T05:23:04.814Z,13.81
2023-08-27T05:23:36.331Z,13.81
2023-08-27T05:24:07.988Z,13.80
2023-08-27T05:24:39.586Z,13.80
2023-08-27T05:25:11.192Z,13.79
2023-08-27T05:25:44.736Z,13.80
2023-08-27T05:26:16.462Z,13.80
2023-08-27T05:26:47.969Z,13.80
2023-08-27T05:27:19.386Z,13.81
2023-08-27T05:27:50.752Z,13.79
2023-08-27T05:28:22.264Z,13.79
2023-08-27T05:28:53.709Z,13.78
2023-08-27T05:29:25.257Z,13.77
2023-08-27T05:29:56.617Z,13.78
2023-08-27T05:30:28.245Z,13.78
2023-08-27T05:30:59.672Z,13.78
2023-08-27T05:31:31.685Z,13.79
2023-08-27T05:32:03.901Z,13.78
2023-08-27T05:32:36.218Z,13.78
2023-08-27T05:33:08.826Z,13.78
2023-08-27T05:33:40.526Z,13.79
2023-08-27T05:34:12.139Z,13.79
2023-08-27T05:34:43.579Z,13.79
2023-08-27T05:35:15.031Z,13.80
2023-08-27T05:35:46.484Z,13.79
2023-08-27T05:36:18.013Z,13.78
2023-08-27T05:36:49.730Z,13.78
2023-08-27T05:37:21.176Z,13.77
2023-08-27T05:37:52.780Z,13.77
2023-08-27T05:38:24.394Z,13.76
2023-08-27T05:38:55.939Z,13.75
2023-08-27T05:39:27.393Z,13.75
2023-08-27T05:39:59.506Z,13.75
2023-08-27T05:40:30.978Z,13.77
2023-08-27T05:41:21.044Z,13.77
2023-08-27T05:41:52.520Z,13.76
2023-08-27T05:42:23.978Z,13.75
2023-08-27T05:42:55.466Z,13.74
2023-08-27T05:43:27.392Z,13.74
2023-08-27T05:43:59.756Z,13.76
2023-08-27T05:44:31.222Z,13.75
2023-08-27T05:45:04.175Z,13.74
2023-08-27T05:45:36.706Z,13.74
2023-08-27T05:46:08.168Z,13.74
2023-08-27T05:46:39.625Z,13.76
2023-08-27T05:47:11.139Z,13.75
2023-08-27T05:47:42.756Z,13.75
2023-08-27T05:48:14.335Z,13.75
2023-08-27T05:48:45.814Z,13.76
2023-08-27T05:49:17.239Z,13.77
2023-08-27T05:49:48.768Z,13.75
2023-08-27T05:50:20.277Z,13.76
2023-08-27T05:50:51.794Z,13.76
2023-08-27T05:51:23.297Z,13.76
2023-08-27T05:51:54.812Z,13.77
2023-08-27T05:52:26.208Z,13.77
2023-08-27T05:52:57.704Z,13.78
2023-08-27T05:53:29.088Z,13.80
2023-08-27T05:54:00.582Z,13.80
2023-08-27T05:54:32.016Z,13.81
2023-08-27T05:55:03.614Z,13.82
2023-08-27T05:55:35.215Z,13.81
2023-08-27T05:56:06.714Z,13.82
2023-08-27T05:56:38.126Z,13.83
2023-08-27T05:57:09.625Z,13.83
2023-08-27T05:57:41.053Z,13.82
2023-08-27T05:58:12.602Z,13.83
2023-08-27T05:58:44.271Z,13.83
2023-08-27T05:59:16.432Z,13.83
2023-08-27T05:59:50.839Z,13.86
2023-08-27T06:00:22.328Z,13.86
2023-08-27T06:00:57.777Z,13.83
2023-08-27T06:01:29.392Z,13.87
2023-08-27T06:02:01.103Z,13.87
2023-08-27T06:02:32.827Z,13.88
2023-08-27T06:03:05.200Z,13.88
2023-08-27T06:03:36.706Z,13.89
2023-08-27T06:04:08.241Z,13.90
2023-08-27T06:04:39.651Z,13.91
2023-08-27T06:05:12.746Z,13.90
2023-08-27T06:05:44.220Z,13.91
2023-08-27T06:06:15.675Z,13.90
2023-08-27T06:06:47.147Z,13.91
2023-08-27T06:07:18.690Z,13.93
2023-08-27T06:07:50.119Z,13.92
2023-08-27T06:08:21.582Z,13.93
2023-08-27T06:08:53.084Z,13.94
2023-08-27T06:09:24.586Z,13.95
2023-08-27T06:09:56.004Z,13.94
2023-08-27T06:10:27.403Z,13.95
2023-08-27T06:10:58.858Z,13.96
2023-08-27T06:11:30.552Z,13.96
2023-08-27T06:12:03.559Z,13.98
2023-08-27T06:12:35.010Z,13.98
2023-08-27T06:13:06.512Z,13.99
2023-08-27T06:13:37.929Z,14.00
2023-08-27T06:14:09.479Z,13.98
2023-08-27T06:14:40.909Z,13.98
2023-08-27T06:15:12.379Z,13.98
2023-08-27T06:15:43.908Z,13.99
2023-08-27T06:16:15.442Z,14.00
2023-08-27T06:16:46.907Z,14.01
2023-08-27T06:17:18.454Z,14.02
2023-08-27T06:17:49.992Z,14.02
2023-08-27T06:18:21.764Z,14.03
2023-08-27T06:18:53.440Z,14.03
2023-08-27T06:19:28.653Z,14.05
2023-08-27T06:20:08.831Z,14.05
2023-08-27T06:20:40.221Z,14.03
2023-08-27T06:21:11.621Z,14.05
2023-08-27T06:21:43.064Z,14.05
2023-08-27T06:22:14.513Z,14.07
2023-08-27T06:22:45.949Z,14.06
2023-08-27T06:23:17.826Z,14.06
2023-08-27T06:23:49.306Z,14.05
2023-08-27T06:24:20.813Z,14.04
2023-08-27T06:24:52.304Z,14.05
2023-08-27T06:25:23.793Z,14.04
2023-08-27T06:25:56.006Z,14.05
2023-08-27T06:26:28.206Z,14.06
2023-08-27T06:26:59.688Z,14.06
2023-08-27T06:27:31.224Z,14.06
2023-08-27T06:28:05.988Z,14.07
2023-08-27T06:28:37.439Z,14.06
2023-08-27T06:29:08.887Z,14.05
2023-08-27T06:29:40.370Z,14.04
2023-08-27T06:30:15.126Z,14.05
2023-08-27T06:30:46.669Z,14.07
2023-08-27T06:31:22.235Z,14.08
2023-08-27T06:31:54.748Z,14.09
2023-08-27T06:32:28.457Z,14.10
2023-08-27T06:33:00.188Z,14.10
2023-08-27T06:33:32.116Z,14.10
2023-08-27T06:34:03.613Z,14.10
2023-08-27T06:34:35.302Z,14.11
2023-08-27T06:35:06.971Z,14.13
2023-08-27T06:35:38.573Z,14.09
2023-08-27T06:36:10.101Z,14.08
2023-08-27T06:36:41.598Z,14.07
2023-08-27T06:37:13.067Z,14.06
2023-08-27T06:37:44.533Z,14.05
2023-08-27T06:38:16.028Z,14.06
2023-08-27T06:38:47.413Z,14.04
2023-08-27T06:39:18.985Z,14.02
2023-08-27T06:39:51.242Z,14.04
2023-08-27T06:40:22.698Z,14.04
2023-08-27T06:40:54.464Z,14.04
2023-08-27T06:41:26.937Z,14.06
2023-08-27T06:42:01.475Z,14.06
2023-08-27T06:42:33.432Z,14.09
2023-08-27T06:43:04.852Z,14.08
2023-08-27T06:43:36.355Z,14.10
2023-08-27T06:44:07.775Z,14.09
2023-08-27T06:44:39.895Z,14.10
2023-08-27T06:45:12.300Z,14.10
2023-08-27T06:45:45.278Z,14.11
2023-08-27T06:46:16.730Z,14.13
2023-08-27T06:46:48.295Z,14.15
2023-08-27T06:47:19.785Z,14.14
2023-08-27T06:47:51.187Z,14.17
2023-08-27T06:48:22.760Z,14.17
2023-08-27T06:48:54.232Z,14.17
2023-08-27T06:49:26.076Z,14.18
2023-08-27T06:49:57.614Z,14.19
2023-08-27T06:50:29.289Z,14.20
2023-08-27T06:51:00.761Z,14.20
2023-08-27T06:51:32.185Z,14.22
2023-08-27T06:52:05.096Z,14.22
2023-08-27T06:52:36.664Z,14.23
2023-08-27T06:53:08.233Z,14.24
2023-08-27T06:53:39.684Z,14.26
2023-08-27T06:54:12.519Z,14.28
2023-08-27T06:54:44.339Z,14.28
2023-08-27T06:55:16.109Z,14.27
2023-08-27T06:55:47.606Z,14.28
2023-08-27T06:56:19.528Z,14.28
2023-08-27T06:56:51.158Z,14.27
2023-08-27T06:57:22.781Z,14.30
2023-08-27T06:57:54.268Z,14.29
2023-08-27T06:58:25.816Z,14.29
2023-08-27T06:58:59.569Z,14.30